Time;durP1;ratioP1;P1;durP2;ratioP2;P2;SDS_P1;SDS_P2;PMS_P1;PMS_P2;Temp;Humidity;BMP_temperature;BMP_pressure;BME280_temperature;BME280_humidity;BME280_pressure;Samples;Min_cycle;Max_cycle;Signal;HPM_P1;HPM_P2
2022/10/30 00:00:04;;;;;;;13.82;5.45;;;;;;;13.12;100.00;101712.97;5052641;28;20045;-78
2022/10/30 00:02:29;;;;;;;12.93;5.68;;;;;;;13.11;100.00;101706.78;5052448;28;20428;-78
2022/10/30 00:04:55;;;;;;;17.67;5.85;;;;;;;13.07;100.00;101713.38;5051082;28;20037;-79
2022/10/30 00:07:20;;;;;;;16.02;6.35;;;;;;;13.08;100.00;101716.88;5052641;28;20056;-78
2022/10/30 00:09:45;;;;;;;14.40;6.07;;;;;;;13.05;100.00;101713.50;5052266;28;20478;-79
2022/10/30 00:12:11;;;;;;;13.98;6.20;;;;;;;13.02;100.00;101713.78;5052172;28;20036;-78
2022/10/30 00:14:36;;;;;;;18.77;6.00;;;;;;;12.99;100.00;101722.06;5052031;28;20028;-79
2022/10/30 00:17:01;;;;;;;19.08;5.78;;;;;;;12.98;100.00;101733.69;5052633;28;20087;-79
2022/10/30 00:19:27;;;;;;;15.82;6.05;;;;;;;12.94;100.00;101726.94;5052597;28;20453;-78
2022/10/30 00:21:52;;;;;;;10.85;5.60;;;;;;;12.91;100.00;101723.69;5051778;28;20398;-77
2022/10/30 00:24:17;;;;;;;21.40;6.68;;;;;;;12.87;100.00;101731.97;5052303;28;20037;-78
2022/10/30 00:26:43;;;;;;;20.50;6.40;;;;;;;12.84;100.00;101729.56;5051851;28;20202;-78
2022/10/30 00:29:08;;;;;;;14.93;6.45;;;;;;;12.83;100.00;101727.03;5052557;28;20095;-79
2022/10/30 00:31:33;;;;;;;18.38;6.15;;;;;;;12.83;100.00;101738.53;5052348;28;20032;-79
2022/10/30 00:33:59;;;;;;;10.57;6.60;;;;;;;12.83;100.00;101741.22;5052156;28;20033;-79
2022/10/30 00:36:24;;;;;;;15.27;5.78;;;;;;;12.77;100.00;101735.56;5052353;28;20128;-79
2022/10/30 00:38:50;;;;;;;18.70;5.95;;;;;;;12.73;100.00;101728.78;5050681;28;20033;-79
2022/10/30 00:41:17;;;;;;;11.63;6.50;;;;;;;12.70;100.00;101730.75;5051155;28;20044;-79
2022/10/30 00:43:43;;;;;;;14.88;6.45;;;;;;;12.69;100.00;101728.22;5051815;28;20044;-79
2022/10/30 00:46:32;;;;;;;15.18;6.03;;;;;;;12.65;100.00;101722.28;5052060;28;20029;-79
2022/10/30 00:49:18;;;;;;;14.18;6.45;;;;;;;12.61;100.00;101728.84;5051525;28;20798;-78
2022/10/30 00:51:48;;;;;;;16.60;6.50;;;;;;;12.55;100.00;101725.88;5051580;28;20106;-79
2022/10/30 00:54:16;;;;;;;19.55;6.60;;;;;;;12.48;100.00;101721.06;5052312;28;20021;-79
2022/10/30 00:56:43;;;;;;;16.77;6.93;;;;;;;12.46;100.00;101716.81;5051628;28;20067;-79
2022/10/30 00:59:14;;;;;;;17.95;6.68;;;;;;;12.40;100.00;101723.50;5051759;28;20036;-79
2022/10/30 01:01:43;;;;;;;12.70;6.88;;;;;;;12.36;100.00;101735.44;5051751;28;20036;-80
2022/10/30 01:04:10;;;;;;;18.02;6.43;;;;;;;12.32;100.00;101737.50;5052029;28;20052;-79
2022/10/30 01:06:38;;;;;;;17.83;6.95;;;;;;;12.30;100.00;101730.59;5050643;28;20025;-79
2022/10/30 01:09:04;;;;;;;21.80;7.10;;;;;;;12.28;100.00;101736.06;5051361;28;20060;-79
2022/10/30 01:11:30;;;;;;;17.25;7.07;;;;;;;12.25;100.00;101740.81;5050602;28;20053;-79
2022/10/30 01:14:00;;;;;;;11.00;6.35;;;;;;;12.21;100.00;101745.59;5051539;28;20116;-79
2022/10/30 01:16:55;;;;;;;11.23;5.80;;;;;;;12.18;100.00;101740.47;5052254;28;20033;-79
2022/10/30 01:19:41;;;;;;;10.82;6.00;;;;;;;12.16;100.00;101739.75;5051964;28;20036;-79
2022/10/30 01:22:25;;;;;;;11.95;5.53;;;;;;;12.12;100.00;101739.19;5051666;28;20033;-79
2022/10/30 01:24:53;;;;;;;16.25;6.60;;;;;;;12.13;100.00;101754.19;5053101;28;20036;-78
2022/10/30 01:27:55;;;;;;;17.83;7.00;;;;;;;12.12;100.00;101747.19;5055645;28;20184;-78
2022/10/30 01:30:39;;;;;;;13.23;7.60;;;;;;;12.13;100.00;101743.53;5055477;28;20033;-78
2022/10/30 01:33:35;;;;;;;19.77;7.18;;;;;;;12.12;100.00;101739.19;5054902;28;20528;-78
2022/10/30 01:36:12;;;;;;;12.07;6.38;;;;;;;12.12;100.00;101740.97;5055236;28;20120;-78
2022/10/30 01:38:52;;;;;;;15.10;6.68;;;;;;;12.11;100.00;101755.31;5055543;28;20029;-77
2022/10/30 01:41:17;;;;;;;14.35;7.25;;;;;;;12.14;100.00;101747.06;5055901;28;20108;-78
2022/10/30 01:43:45;;;;;;;20.05;6.93;;;;;;;12.11;100.00;101737.47;5055021;28;20529;-78
2022/10/30 01:46:14;;;;;;;16.58;7.13;;;;;;;12.14;100.00;101737.22;5054762;28;20036;-78
2022/10/30 01:49:00;;;;;;;19.95;7.82;;;;;;;12.15;100.00;101746.06;5055291;28;20033;-78
2022/10/30 01:51:53;;;;;;;16.10;6.43;;;;;;;12.19;100.00;101749.34;5055435;28;20025;-78
2022/10/30 01:54:46;;;;;;;15.70;6.80;;;;;;;12.24;100.00;101753.31;5054896;28;20380;-78
2022/10/30 01:57:32;;;;;;;12.25;6.50;;;;;;;12.29;100.00;101748.44;5054432;28;20025;-77
2022/10/30 02:00:03;;;;;;;12.60;6.22;;;;;;;12.28;100.00;101752.06;5054410;28;20457;-78
2022/10/30 02:02:30;;;;;;;13.68;6.30;;;;;;;12.24;100.00;101750.66;5055333;28;20071;-77
2022/10/30 02:04:55;;;;;;;15.07;6.30;;;;;;;12.18;100.00;101745.81;5053233;28;20082;-78
2022/10/30 02:07:21;;;;;;;16.48;6.45;;;;;;;12.10;100.00;101741.13;5054878;28;20036;-78
2022/10/30 02:09:49;;;;;;;13.80;7.05;;;;;;;12.03;100.00;101742.59;5054917;28;20123;-79
2022/10/30 02:12:15;;;;;;;12.90;6.30;;;;;;;11.96;100.00;101739.59;5054255;28;20386;-79
2022/10/30 02:14:44;;;;;;;18.48;6.88;;;;;;;11.92;100.00;101734.63;5054802;28;20102;-79
2022/10/30 02:17:10;;;;;;;16.20;6.82;;;;;;;11.87;100.00;101739.47;5054518;28;20373;-79
2022/10/30 02:19:35;;;;;;;17.10;6.70;;;;;;;11.83;100.00;101750.38;5054298;28;20511;-79
2022/10/30 02:22:01;;;;;;;14.05;6.97;;;;;;;11.82;100.00;101742.50;5052953;28;20025;-78
2022/10/30 02:24:28;;;;;;;19.92;7.35;;;;;;;11.79;100.00;101748.97;5054521;28;20052;-79
2022/10/30 02:26:53;;;;;;;19.20;7.50;;;;;;;11.75;100.00;101750.16;5053650;28;20051;-79
2022/10/30 02:29:20;;;;;;;12.32;6.63;;;;;;;11.73;100.00;101752.09;5054224;28;20116;-79
2022/10/30 02:31:46;;;;;;;15.73;6.75;;;;;;;11.70;100.00;101755.00;5054603;28;20033;-78
2022/10/30 02:34:11;;;;;;;16.40;7.55;;;;;;;11.68;100.00;101756.97;5054023;28;20087;-77
2022/10/30 02:36:36;;;;;;;14.82;6.47;;;;;;;11.63;100.00;101759.16;5054035;28;20583;-79
2022/10/30 02:39:02;;;;;;;15.55;6.82;;;;;;;11.57;100.00;101763.16;5053947;28;20040;-78
2022/10/30 02:41:27;;;;;;;13.18;7.63;;;;;;;11.55;100.00;101766.91;5054441;28;20025;-78
2022/10/30 02:43:53;;;;;;;20.10;7.03;;;;;;;11.50;100.00;101761.97;5054509;28;20457;-78
2022/10/30 02:46:19;;;;;;;13.52;7.13;;;;;;;11.46;100.00;101771.16;5052277;28;20338;-78
2022/10/30 02:48:44;;;;;;;15.75;7.75;;;;;;;11.39;100.00;101762.81;5054097;28;20120;-78
2022/10/30 02:51:10;;;;;;;11.45;6.47;;;;;;;11.34;100.00;101762.31;5052319;28;20029;-78
2022/10/30 02:53:36;;;;;;;16.23;7.15;;;;;;;11.31;100.00;101759.06;5054008;28;20162;-78
2022/10/30 02:56:06;;;;;;;20.45;9.00;;;;;;;11.24;100.00;101758.69;5053629;28;20068;-78
2022/10/30 02:58:32;;;;;;;12.52;6.68;;;;;;;11.20;100.00;101754.59;5053472;28;20381;-78
2022/10/30 03:00:57;;;;;;;18.60;8.13;;;;;;;11.14;100.00;101763.03;5053858;28;20025;-78
2022/10/30 03:03:22;;;;;;;12.27;7.05;;;;;;;11.12;100.00;101771.16;5053363;28;20108;-78
2022/10/30 03:05:48;;;;;;;15.20;7.00;;;;;;;11.08;100.00;101770.56;5053635;28;20462;-78
2022/10/30 03:08:13;;;;;;;13.70;7.50;;;;;;;11.02;100.00;101756.88;5053004;28;20033;-78
2022/10/30 03:10:38;;;;;;;16.58;7.63;;;;;;;10.95;100.00;101748.50;5053900;28;20033;-78
2022/10/30 03:13:04;;;;;;;20.20;8.07;;;;;;;10.89;100.00;101749.00;5053159;28;20025;-79
2022/10/30 03:15:29;;;;;;;16.95;7.10;;;;;;;10.86;100.00;101749.22;5053576;28;20051;-78
2022/10/30 03:17:54;;;;;;;14.93;7.90;;;;;;;10.81;100.00;101754.91;5053440;28;20061;-77
2022/10/30 03:20:20;;;;;;;12.63;7.95;;;;;;;10.76;100.00;101752.59;5052795;28;20029;-78
2022/10/30 03:22:45;;;;;;;13.85;7.28;;;;;;;10.71;100.00;101751.25;5053292;28;20025;-78
2022/10/30 03:25:10;;;;;;;14.85;7.32;;;;;;;10.67;100.00;101747.97;5052830;28;20381;-78
2022/10/30 03:27:36;;;;;;;13.27;7.30;;;;;;;10.59;100.00;101755.69;5053301;28;20490;-78
2022/10/30 03:30:01;;;;;;;13.05;7.95;;;;;;;10.54;100.00;101755.22;5053185;28;20037;-78
2022/10/30 03:32:27;;;;;;;12.18;7.40;;;;;;;10.51;100.00;101753.63;5052506;28;20371;-78
2022/10/30 03:34:52;;;;;;;14.38;7.22;;;;;;;10.48;100.00;101742.34;5053132;28;20094;-78
2022/10/30 03:37:17;;;;;;;15.32;7.85;;;;;;;10.46;100.00;101754.94;5052656;28;20040;-78
2022/10/30 03:39:43;;;;;;;20.30;8.57;;;;;;;10.42;100.00;101751.66;5053114;28;20116;-77
2022/10/30 03:42:08;;;;;;;16.63;8.40;;;;;;;10.45;100.00;101758.53;5052597;28;20474;-77
2022/10/30 03:44:33;;;;;;;15.27;8.45;;;;;;;10.47;100.00;101757.47;5052588;28;20033;-76
2022/10/30 03:46:59;;;;;;;18.10;10.15;;;;;;;10.52;100.00;101765.94;5052115;28;20032;-76
2022/10/30 03:49:24;;;;;;;18.40;8.63;;;;;;;10.51;100.00;101763.41;5051897;28;20433;-76
2022/10/30 03:51:49;;;;;;;14.50;8.70;;;;;;;10.48;100.00;101764.50;5051549;28;20468;-76
2022/10/30 03:54:15;;;;;;;17.17;7.38;;;;;;;10.46;100.00;101765.56;5052041;28;20366;-76
2022/10/30 03:56:40;;;;;;;14.15;7.30;;;;;;;10.46;100.00;101766.41;5052413;28;20037;-76
2022/10/30 03:59:05;;;;;;;24.02;9.98;;;;;;;10.47;100.00;101757.47;5052573;28;20033;-76
2022/10/30 04:01:31;;;;;;;21.88;8.75;;;;;;;10.46;100.00;101761.09;5051962;28;20029;-77
2022/10/30 04:03:56;;;;;;;18.67;9.25;;;;;;;10.44;100.00;101762.19;5052599;28;20462;-77
2022/10/30 04:06:21;;;;;;;28.85;9.65;;;;;;;10.41;100.00;101764.09;5052063;28;20064;-77
2022/10/30 04:08:47;;;;;;;17.58;8.93;;;;;;;10.43;100.00;101773.78;5052696;28;20033;-77
2022/10/30 04:11:12;;;;;;;21.85;9.30;;;;;;;10.43;100.00;101777.28;5050873;28;20044;-77
2022/10/30 04:13:38;;;;;;;20.60;8.98;;;;;;;10.40;100.00;101772.19;5051281;28;20108;-76
2022/10/30 04:16:04;;;;;;;15.25;7.38;;;;;;;10.38;100.00;101764.34;5052041;28;20040;-76
2022/10/30 04:18:29;;;;;;;23.10;8.55;;;;;;;10.40;100.00;101757.09;5051896;28;20028;-76
2022/10/30 04:20:54;;;;;;;18.23;8.40;;;;;;;10.48;100.00;101756.53;5052355;28;20037;-76
2022/10/30 04:23:21;;;;;;;24.00;10.50;;;;;;;10.53;100.00;101750.84;5051894;28;20091;-76
2022/10/30 04:25:47;;;;;;;22.75;10.52;;;;;;;10.57;100.00;101739.00;5051991;28;20163;-76
2022/10/30 04:28:13;;;;;;;18.55;9.57;;;;;;;10.59;100.00;101745.88;5052111;28;20119;-76
2022/10/30 04:30:39;;;;;;;18.55;9.93;;;;;;;10.60;100.00;101741.44;5052175;28;20033;-77
2022/10/30 04:33:08;;;;;;;21.05;9.07;;;;;;;10.58;100.00;101744.22;5052187;28;20056;-77
2022/10/30 04:35:38;;;;;;;17.17;8.13;;;;;;;10.56;100.00;101742.63;5051674;28;20033;-77
2022/10/30 04:38:09;;;;;;;19.15;9.13;;;;;;;10.52;100.00;101739.34;5052549;28;20033;-76
2022/10/30 04:40:37;;;;;;;17.73;8.32;;;;;;;10.48;100.00;101734.38;5051942;28;20512;-77
2022/10/30 04:43:03;;;;;;;17.67;8.40;;;;;;;10.44;100.00;101735.59;5052189;28;20039;-76
2022/10/30 04:45:28;;;;;;;13.95;7.60;;;;;;;10.37;100.00;101737.84;5050332;28;20455;-76
2022/10/30 04:48:06;;;;;;;14.68;8.60;;;;;;;10.32;100.00;101732.00;5050802;28;20036;-77
2022/10/30 04:50:33;;;;;;;15.32;8.63;;;;;;;10.27;100.00;101734.16;5051664;28;20028;-77
2022/10/30 04:53:04;;;;;;;13.10;7.88;;;;;;;10.21;100.00;101736.31;5052074;28;20068;-76
2022/10/30 04:55:30;;;;;;;16.35;9.68;;;;;;;10.18;100.00;101741.00;5051623;28;20029;-76
2022/10/30 04:57:57;;;;;;;14.50;8.40;;;;;;;10.14;100.00;101750.19;5051990;28;20029;-76
2022/10/30 05:00:23;;;;;;;15.55;8.30;;;;;;;10.09;100.00;101745.22;5055320;28;20033;-77
2022/10/30 05:02:48;;;;;;;14.40;7.60;;;;;;;10.03;100.00;101745.66;5055894;28;20075;-76
2022/10/30 05:05:13;;;;;;;16.85;8.75;;;;;;;10.02;100.00;101743.97;5055935;28;20040;-76
2022/10/30 05:07:39;;;;;;;17.83;8.10;;;;;;;10.05;100.00;101747.25;5055386;28;20082;-76
2022/10/30 05:10:05;;;;;;;15.85;8.13;;;;;;;10.09;100.00;101745.22;5055795;28;20053;-76
2022/10/30 05:12:30;;;;;;;17.83;9.02;;;;;;;10.10;100.00;101746.06;5055061;28;20141;-76
2022/10/30 05:14:55;;;;;;;24.40;9.90;;;;;;;10.10;100.00;101738.91;5055460;28;20032;-75
2022/10/30 05:17:20;;;;;;;18.15;9.75;;;;;;;10.07;100.00;101745.31;5055711;28;20094;-77
2022/10/30 05:19:46;;;;;;;17.15;8.65;;;;;;;10.05;100.00;101749.06;5055616;28;20033;-76
2022/10/30 05:22:11;;;;;;;21.85;9.80;;;;;;;10.02;100.00;101741.31;5055712;28;20032;-75
2022/10/30 05:24:37;;;;;;;16.48;7.82;;;;;;;10.02;100.00;101739.50;5055103;28;20033;-76
2022/10/30 05:27:02;;;;;;;20.08;9.85;;;;;;;10.03;100.00;101738.53;5055348;28;20347;-76
2022/10/30 05:29:28;;;;;;;20.90;10.18;;;;;;;10.05;100.00;101735.75;5055057;28;20088;-76
2022/10/30 05:31:53;;;;;;;19.92;9.13;;;;;;;10.07;100.00;101736.50;5055421;28;20029;-75
2022/10/30 05:34:18;;;;;;;20.92;9.85;;;;;;;10.10;100.00;101740.75;5055066;28;20033;-75
2022/10/30 05:36:44;;;;;;;24.48;10.35;;;;;;;10.10;100.00;101749.56;5054861;28;20047;-76
2022/10/30 05:39:09;;;;;;;27.33;10.07;;;;;;;10.18;100.00;101748.97;5055525;28;20036;-75
2022/10/30 05:41:34;;;;;;;21.58;8.88;;;;;;;10.19;100.00;101753.34;5054860;28;20120;-76
2022/10/30 05:44:00;;;;;;;24.27;10.80;;;;;;;10.18;100.00;101767.59;5055192;28;20083;-76
2022/10/30 05:46:25;;;;;;;21.60;8.73;;;;;;;10.18;100.00;101768.47;5054597;28;20029;-77
2022/10/30 05:48:50;;;;;;;18.35;9.40;;;;;;;10.17;100.00;101763.25;5055075;28;20037;-76
2022/10/30 05:51:16;;;;;;;20.55;9.27;;;;;;;10.13;100.00;101761.78;5055070;28;20060;-76
2022/10/30 05:53:41;;;;;;;17.35;9.38;;;;;;;10.09;100.00;101753.19;5054550;28;20112;-76
2022/10/30 05:56:06;;;;;;;18.88;9.65;;;;;;;10.05;100.00;101755.22;5054834;28;20037;-76
2022/10/30 05:58:32;;;;;;;19.48;9.98;;;;;;;10.07;100.00;101755.94;5054232;28;20450;-77
2022/10/30 06:00:57;;;;;;;23.42;10.70;;;;;;;10.08;100.00;101759.47;5054676;28;20029;-75
2022/10/30 06:03:22;;;;;;;17.00;9.20;;;;;;;10.06;100.00;101748.06;5054438;28;20069;-76
2022/10/30 06:05:48;;;;;;;20.60;10.65;;;;;;;10.03;100.00;101750.97;5054136;28;20052;-76
2022/10/30 06:08:15;;;;;;;15.63;8.50;;;;;;;10.01;100.00;101755.56;5054476;28;20481;-76
2022/10/30 06:10:40;;;;;;;19.98;9.35;;;;;;;9.98;100.00;101766.41;5053402;28;20060;-76
2022/10/30 06:13:06;;;;;;;22.02;9.35;;;;;;;9.92;100.00;101769.53;5054646;28;20120;-76
2022/10/30 06:15:32;;;;;;;21.23;9.57;;;;;;;9.84;100.00;101765.63;5054184;28;20040;-77
2022/10/30 06:17:58;;;;;;;19.67;9.77;;;;;;;9.76;100.00;101765.31;5054721;28;20025;-76
2022/10/30 06:20:26;;;;;;;14.57;8.02;;;;;;;9.70;100.00;101771.94;5054117;28;20445;-76
2022/10/30 06:22:59;;;;;;;16.83;8.63;;;;;;;9.67;100.00;101777.47;5054182;28;20036;-76
2022/10/30 06:25:25;;;;;;;18.08;8.75;;;;;;;9.67;100.00;101773.94;5054277;28;20032;-76
2022/10/30 06:27:51;;;;;;;24.30;10.68;;;;;;;9.66;100.00;101773.13;5051968;28;20057;-76
2022/10/30 06:30:17;;;;;;;21.90;9.65;;;;;;;9.63;100.00;101770.69;5054154;28;20102;-76
2022/10/30 06:32:42;;;;;;;20.63;9.45;;;;;;;9.65;100.00;101773.22;5053722;28;20424;-76
2022/10/30 06:35:08;;;;;;;21.52;9.65;;;;;;;9.63;100.00;101768.03;5054062;28;20041;-76
2022/10/30 06:37:33;;;;;;;17.55;9.05;;;;;;;9.63;100.00;101770.69;5053642;28;20037;-77
2022/10/30 06:39:59;;;;;;;20.10;9.90;;;;;;;9.61;100.00;101767.25;5054242;28;20040;-76
2022/10/30 06:42:24;;;;;;;20.60;10.00;;;;;;;9.62;100.00;101762.81;5052834;28;20029;-76
2022/10/30 06:44:50;;;;;;;20.60;9.48;;;;;;;9.63;100.00;101767.16;5053575;28;20147;-77
2022/10/30 06:47:15;;;;;;;21.23;9.55;;;;;;;9.64;100.00;101769.72;5053937;28;20373;-76
2022/10/30 06:49:40;;;;;;;14.73;8.50;;;;;;;9.64;100.00;101766.19;5053502;28;20095;-76
2022/10/30 06:52:06;;;;;;;16.60;8.63;;;;;;;9.67;100.00;101766.84;5053753;28;20029;-75
2022/10/30 06:54:31;;;;;;;18.50;9.65;;;;;;;9.71;100.00;101765.66;5053847;28;20036;-76
2022/10/30 06:56:56;;;;;;;16.02;8.98;;;;;;;9.80;100.00;101757.97;5053333;28;20473;-76
2022/10/30 06:59:22;;;;;;;23.38;10.82;;;;;;;9.98;100.00;101753.97;5053808;28;20052;-76
2022/10/30 07:01:47;;;;;;;22.40;10.77;;;;;;;10.14;100.00;101751.03;5053442;28;20033;-76
2022/10/30 07:04:13;;;;;;;23.77;10.85;;;;;;;10.29;100.00;101757.03;5053385;28;20500;-76
2022/10/30 07:06:38;;;;;;;27.20;11.07;;;;;;;10.41;100.00;101752.63;5053137;28;20500;-77
2022/10/30 07:09:03;;;;;;;21.80;10.40;;;;;;;10.52;100.00;101767.75;5053744;28;20029;-76
2022/10/30 07:11:29;;;;;;;20.80;10.68;;;;;;;10.62;100.00;101770.59;5053189;28;20448;-76
2022/10/30 07:13:54;;;;;;;23.50;11.40;;;;;;;10.69;100.00;101766.47;5052980;28;20025;-76
2022/10/30 07:16:19;;;;;;;26.77;10.90;;;;;;;10.76;100.00;101768.56;5053464;28;20065;-76
2022/10/30 07:18:45;;;;;;;29.27;11.15;;;;;;;10.85;100.00;101761.69;5052777;28;20029;-75
2022/10/30 07:21:10;;;;;;;24.25;11.07;;;;;;;10.93;100.00;101755.78;5053515;28;20032;-75
2022/10/30 07:23:35;;;;;;;22.50;10.82;;;;;;;11.02;100.00;101765.72;5053303;28;20037;-73
2022/10/30 07:26:01;;;;;;;24.40;10.55;;;;;;;11.08;100.00;101767.88;5052722;28;20147;-77
2022/10/30 07:28:26;;;;;;;24.15;10.88;;;;;;;11.16;100.00;101774.44;5053492;28;20072;-75
2022/10/30 07:30:51;;;;;;;24.77;10.25;;;;;;;11.24;100.00;101772.00;5052826;28;20041;-75
2022/10/30 07:33:17;;;;;;;24.52;10.30;;;;;;;11.33;100.00;101770.44;5053022;28;20175;-76
2022/10/30 07:35:42;;;;;;;22.48;10.82;;;;;;;11.44;100.00;101773.94;5053020;28;20460;-77
2022/10/30 07:38:11;;;;;;;23.02;10.65;;;;;;;11.53;100.00;101776.88;5053144;28;20537;-77
2022/10/30 07:40:36;;;;;;;26.50;9.98;;;;;;;11.62;100.00;101782.28;5053506;28;20460;-76
2022/10/30 07:43:03;;;;;;;26.30;10.55;;;;;;;11.73;100.00;101781.41;5052336;28;20033;-75
2022/10/30 07:45:29;;;;;;;20.83;9.52;;;;;;;11.85;100.00;101778.75;5052954;28;20029;-76
2022/10/30 07:47:55;;;;;;;22.65;9.85;;;;;;;11.97;100.00;101775.97;5052439;28;20056;-77
2022/10/30 07:50:21;;;;;;;26.63;10.27;;;;;;;12.13;100.00;101770.19;5052788;28;20115;-76
2022/10/30 07:52:46;;;;;;;18.55;9.05;;;;;;;12.25;100.00;101768.34;5052521;28;20499;-77
2022/10/30 07:55:12;;;;;;;20.55;9.38;;;;;;;12.41;100.00;101767.91;5052877;28;20040;-77
2022/10/30 07:57:39;;;;;;;24.52;8.77;;;;;;;12.59;100.00;101768.19;5052993;28;20037;-76
2022/10/30 08:00:07;;;;;;;18.42;8.98;;;;;;;12.79;100.00;101789.69;5052393;28;20472;-77
2022/10/30 08:02:32;;;;;;;17.65;8.43;;;;;;;12.89;100.00;101785.25;5052531;28;20052;-74
2022/10/30 08:04:58;;;;;;;18.27;8.02;;;;;;;12.99;100.00;101796.00;5051950;28;20036;-76
2022/10/30 08:07:27;;;;;;;16.23;8.32;;;;;;;13.05;100.00;101790.13;5052328;28;20128;-79
2022/10/30 08:09:53;;;;;;;15.63;8.60;;;;;;;13.15;100.00;101801.72;5052375;28;20029;-80
2022/10/30 08:12:18;;;;;;;19.65;8.07;;;;;;;13.28;100.00;101803.31;5053192;28;20071;-81
2022/10/30 08:14:43;;;;;;;15.40;8.10;;;;;;;13.42;100.00;101804.81;5053435;28;20081;-80
2022/10/30 08:17:09;;;;;;;19.58;7.70;;;;;;;13.54;100.00;101799.25;5052963;28;20039;-80
2022/10/30 08:19:35;;;;;;;16.05;7.85;;;;;;;13.68;100.00;101799.88;5053132;28;20033;-81
2022/10/30 08:22:01;;;;;;;20.00;8.85;;;;;;;13.75;100.00;101798.34;5051353;28;20457;-81
2022/10/30 08:24:26;;;;;;;17.65;8.18;;;;;;;13.86;100.00;101808.06;5052695;28;20037;-80
2022/10/30 08:26:51;;;;;;;16.92;7.45;;;;;;;13.97;100.00;101802.59;5050418;28;20114;-77
2022/10/30 08:29:17;;;;;;;17.60;8.15;;;;;;;14.03;100.00;101803.88;5052686;28;20048;-79
2022/10/30 08:31:42;;;;;;;18.48;8.63;;;;;;;14.10;100.00;101803.19;5052544;28;20061;-79
2022/10/30 08:34:08;;;;;;;16.67;7.75;;;;;;;14.16;100.00;101796.44;5051555;28;20033;-78
2022/10/30 08:36:33;;;;;;;18.00;7.88;;;;;;;14.22;100.00;101778.97;5052745;28;20086;-79
2022/10/30 08:38:59;;;;;;;16.13;7.85;;;;;;;14.26;100.00;101775.88;5052242;28;20496;-79
2022/10/30 08:41:24;;;;;;;20.92;8.48;;;;;;;14.31;100.00;101775.44;5052223;28;20454;-79
2022/10/30 08:43:50;;;;;;;19.90;8.57;;;;;;;14.40;100.00;101787.97;5052169;28;20381;-78
2022/10/30 08:46:15;;;;;;;19.02;8.05;;;;;;;14.54;100.00;101793.91;5051636;28;20033;-78
2022/10/30 08:48:40;;;;;;;15.98;7.68;;;;;;;14.60;100.00;101791.50;5051958;28;20024;-79
2022/10/30 08:51:06;;;;;;;16.80;8.20;;;;;;;14.74;100.00;101789.41;5051719;28;20102;-78
2022/10/30 08:53:31;;;;;;;13.15;7.88;;;;;;;14.84;100.00;101778.66;5052067;28;20424;-78
2022/10/30 08:55:57;;;;;;;15.70;8.23;;;;;;;14.96;100.00;101789.09;5048480;28;20361;-80
2022/10/30 08:58:22;;;;;;;14.65;7.75;;;;;;;15.05;100.00;101787.38;5049643;28;20033;-79
2022/10/30 09:00:47;;;;;;;16.60;7.80;;;;;;;15.16;100.00;101787.19;5049270;28;20036;-79
2022/10/30 09:03:13;;;;;;;17.63;7.93;;;;;;;15.29;100.00;101799.44;5048932;28;20501;-79
2022/10/30 09:05:38;;;;;;;16.92;8.65;;;;;;;15.33;100.00;101795.44;5048216;28;20033;-80
2022/10/30 09:08:04;;;;;;;23.08;9.10;;;;;;;15.39;100.00;101785.97;5048190;28;20028;-79
2022/10/30 09:10:29;;;;;;;26.13;9.02;;;;;;;15.45;100.00;101788.06;5049060;28;20033;-79
2022/10/30 09:12:56;;;;;;;20.35;8.25;;;;;;;15.58;100.00;101785.06;5048704;28;20037;-79
2022/10/30 09:15:21;;;;;;;23.58;8.82;;;;;;;15.70;100.00;101791.91;5048315;28;20033;-79
2022/10/30 09:17:47;;;;;;;20.77;8.68;;;;;;;15.82;100.00;101797.94;5049064;28;20074;-79
2022/10/30 09:20:12;;;;;;;15.95;7.95;;;;;;;16.12;100.00;101795.91;5048584;28;20040;-78
2022/10/30 09:22:42;;;;;;;21.05;9.23;;;;;;;16.41;100.00;101793.00;5051532;28;20037;-78
2022/10/30 09:25:07;;;;;;;18.67;8.40;;;;;;;16.92;100.00;101794.09;5048647;28;20037;-78
2022/10/30 09:27:39;;;;;;;17.63;8.50;;;;;;;17.56;100.00;101793.78;5049012;28;20151;-79
2022/10/30 09:30:05;;;;;;;26.27;9.40;;;;;;;18.20;100.00;101797.84;5030664;28;20043;-78
2022/10/30 09:32:30;;;;;;;18.23;7.47;;;;;;;19.31;100.00;101793.75;5048246;28;20351;-79
2022/10/30 09:34:55;;;;;;;20.63;8.63;;;;;;;19.78;100.00;101784.81;5049060;28;20083;-80
2022/10/30 09:37:22;;;;;;;24.65;8.15;;;;;;;20.30;100.00;101782.44;5048305;28;20044;-80
2022/10/30 09:39:47;;;;;;;19.38;8.57;;;;;;;20.33;100.00;101780.22;5048755;28;20029;-80
2022/10/30 09:42:21;;;;;;;18.33;8.13;;;;;;;20.11;100.00;101775.63;5048560;28;20094;-80
2022/10/30 09:45:28;;;;;;;18.35;8.98;;;;;;;19.75;100.00;101774.31;5048751;28;20047;-80
2022/10/30 09:47:56;;;;;;;19.38;8.95;;;;;;;19.59;100.00;101780.63;5046111;28;20494;-80
2022/10/30 09:50:26;;;;;;;20.27;8.93;;;;;;;19.49;100.00;101786.22;5052010;28;20074;-80
2022/10/30 09:53:16;;;;;;;22.13;8.20;;;;;;;19.39;100.00;101785.59;5052399;28;20029;-80
2022/10/30 09:56:07;;;;;;;20.48;8.32;;;;;;;19.20;100.00;101773.38;5051788;28;20108;-79
2022/10/30 09:58:38;;;;;;;20.13;8.60;;;;;;;19.02;100.00;101771.72;5052135;28;20033;-78
2022/10/30 10:01:11;;;;;;;19.98;8.30;;;;;;;19.08;100.00;101766.66;5048395;28;20039;-80
2022/10/30 10:03:46;;;;;;;20.63;7.50;;;;;;;19.09;100.00;101762.94;5052139;28;20029;-76
2022/10/30 10:06:16;;;;;;;16.83;7.20;;;;;;;18.98;100.00;101765.00;5054095;28;20029;-78
2022/10/30 10:08:49;;;;;;;21.48;7.88;;;;;;;18.86;100.00;101779.84;5054890;28;20029;-79
2022/10/30 10:11:19;;;;;;;17.33;8.27;;;;;;;18.80;100.00;101781.34;5054441;28;20032;-78
2022/10/30 10:13:49;;;;;;;19.97;7.63;;;;;;;18.78;100.00;101772.59;5055031;28;20028;-79
2022/10/30 10:16:20;;;;;;;15.68;7.20;;;;;;;18.87;100.00;101776.16;5054283;28;20017;-78
2022/10/30 10:18:59;;;;;;;27.83;7.85;;;;;;;18.96;100.00;101768.88;5054643;28;20047;-80
2022/10/30 10:21:29;;;;;;;24.35;8.10;;;;;;;18.96;100.00;101785.91;5054167;28;20052;-78
2022/10/30 10:23:59;;;;;;;27.60;9.02;;;;;;;18.80;100.00;101783.22;5053311;28;20036;-81
2022/10/30 10:26:46;;;;;;;18.98;7.32;;;;;;;18.68;100.00;101778.16;5053966;28;20035;-78
2022/10/30 10:29:45;;;;;;;23.73;7.90;;;;;;;18.58;100.00;101777.47;5054003;28;20374;-79
2022/10/30 10:32:49;;;;;;;27.10;7.63;;;;;;;18.44;100.00;101767.41;5054172;28;20036;-81
2022/10/30 10:35:20;;;;;;;23.95;8.02;;;;;;;18.31;100.00;101760.66;5054044;28;20029;-79
2022/10/30 10:37:59;;;;;;;18.00;7.13;;;;;;;18.23;100.00;101765.22;5054480;28;20032;-79
2022/10/30 10:40:37;;;;;;;18.98;7.03;;;;;;;18.17;100.00;101766.72;5053880;28;20033;-79
2022/10/30 10:44:10;;;;;;;20.52;6.88;;;;;;;18.20;100.00;101763.69;5054298;28;20041;-79
2022/10/30 10:46:57;;;;;;;19.25;7.57;;;;;;;18.21;100.00;101759.13;4979872;28;20047;-79
2022/10/30 10:49:32;;;;;;;17.63;6.93;;;;;;;18.25;100.00;101757.78;5049303;28;20484;-80
2022/10/30 10:52:20;;;;;;;23.20;7.60;;;;;;;18.39;100.00;101761.66;5054151;28;20111;-79
2022/10/30 10:55:00;;;;;;;20.40;6.82;;;;;;;18.45;100.00;101763.69;5054187;28;20032;-79
2022/10/30 10:57:31;;;;;;;20.25;6.85;;;;;;;18.54;100.00;101756.44;5053315;28;20107;-79
2022/10/30 11:00:04;;;;;;;18.75;7.57;;;;;;;18.61;100.00;101754.75;5053828;28;20454;-79
2022/10/30 11:02:51;;;;;;;17.50;7.25;;;;;;;18.66;100.00;101747.84;5053410;28;20029;-79
2022/10/30 11:05:36;;;;;;;19.80;6.97;;;;;;;18.72;100.00;101745.47;5053645;28;20029;-84
2022/10/30 11:08:10;;;;;;;26.60;7.88;;;;;;;18.85;100.00;101743.09;5053862;28;20025;-80
2022/10/30 11:10:36;;;;;;;20.83;7.22;;;;;;;18.98;100.00;101737.19;5053304;28;20087;-79
2022/10/30 11:13:01;;;;;;;21.90;7.53;;;;;;;19.03;100.00;101732.97;5053709;28;20470;-79
2022/10/30 11:15:37;;;;;;;22.33;7.15;;;;;;;19.11;100.00;101734.78;5053085;28;20421;-79